Time;durP1;ratioP1;P1;durP2;ratioP2;P2;SDS_P1;SDS_P2;PMS_P1;PMS_P2;Temp;Humidity;BMP_temperature;BMP_pressure;BME280_temperature;BME280_humidity;BME280_pressure;Samples;Min_cycle;Max_cycle;Signal;HPM_P1;HPM_P2
2024/01/26 00:00:05;;;;;;;6.28;2.42;;;10.50;99.90;;;;;;5058462;28;20484;-73
2024/01/26 00:02:30;;;;;;;12.32;2.97;;;10.50;99.90;;;;;;5046352;28;20064;-72
2024/01/26 00:04:56;;;;;;;10.48;2.78;;;10.50;99.90;;;;;;5060118;28;20554;-73
2024/01/26 00:07:22;;;;;;;14.38;2.25;;;10.50;99.90;;;;;;5047700;28;20563;-73
2024/01/26 00:09:47;;;;;;;9.05;2.50;;;10.50;99.90;;;;;;5064731;28;20044;-72
2024/01/26 00:12:13;;;;;;;16.15;2.72;;;10.50;99.90;;;;;;5045386;28;20036;-73
2024/01/26 00:14:39;;;;;;;23.60;3.20;;;10.50;99.90;;;;;;5060384;28;20028;-73
2024/01/26 00:17:04;;;;;;;16.77;3.17;;;10.50;99.90;;;;;;5052504;28;20036;-74
2024/01/26 00:19:30;;;;;;;13.00;2.22;;;10.50;99.90;;;;;;5059379;28;20065;-74
2024/01/26 00:21:56;;;;;;;8.00;2.67;;;10.60;99.90;;;;;;5051668;28;20024;-73
2024/01/26 00:24:22;;;;;;;14.80;3.22;;;10.60;99.90;;;;;;5062739;28;20032;-72
2024/01/26 00:26:48;;;;;;;27.63;2.58;;;10.60;99.90;;;;;;5054155;28;20866;-74
2024/01/26 00:29:13;;;;;;;15.27;2.47;;;10.60;99.90;;;;;;5049527;28;20070;-74
2024/01/26 00:31:39;;;;;;;6.72;2.38;;;10.60;99.90;;;;;;5065692;28;20021;-74
2024/01/26 00:34:05;;;;;;;14.20;2.95;;;;;;;;;;5047825;28;20020;-72
2024/01/26 00:36:30;;;;;;;14.65;2.00;;;10.50;99.90;;;;;;5064869;28;20023;-72
2024/01/26 00:38:56;;;;;;;13.57;2.50;;;10.50;99.90;;;;;;5051978;28;20032;-73
2024/01/26 00:41:22;;;;;;;17.05;2.33;;;10.50;99.90;;;;;;5063092;28;20036;-73
2024/01/26 00:43:47;;;;;;;7.35;2.60;;;10.60;99.90;;;;;;5050449;28;20037;-73
2024/01/26 00:46:13;;;;;;;14.80;2.65;;;10.60;99.90;;;;;;5059706;28;20404;-73
2024/01/26 00:48:39;;;;;;;12.05;3.22;;;10.60;99.90;;;;;;5053431;28;20476;-73
2024/01/26 00:51:06;;;;;;;16.10;3.25;;;10.60;99.90;;;;;;5065061;28;20037;-75
2024/01/26 00:53:32;;;;;;;19.55;2.33;;;10.60;99.90;;;;;;5048331;28;20024;-73
2024/01/26 00:55:58;;;;;;;18.55;2.75;;;10.60;99.90;;;;;;5063808;28;20090;-72
2024/01/26 00:58:24;;;;;;;15.75;3.15;;;10.50;99.90;;;;;;5049734;28;20814;-74
2024/01/26 01:00:49;;;;;;;17.92;3.28;;;10.50;99.90;;;;;;5060371;28;20160;-73
2024/01/26 01:03:15;;;;;;;22.60;2.20;;;10.50;99.90;;;;;;5048583;28;21170;-75
2024/01/26 01:05:42;;;;;;;17.20;3.08;;;10.50;99.90;;;;;;5065673;28;20040;-73
2024/01/26 01:08:08;;;;;;;11.23;3.00;;;10.60;99.90;;;;;;5067359;28;20074;-72
2024/01/26 01:10:33;;;;;;;9.70;2.67;;;10.60;99.90;;;;;;5049381;28;20028;-72
2024/01/26 01:12:59;;;;;;;15.43;2.17;;;10.60;99.90;;;;;;5056748;28;20052;-72
2024/01/26 01:15:25;;;;;;;17.52;3.45;;;10.60;99.90;;;;;;5048907;28;20111;-73
2024/01/26 01:17:50;;;;;;;18.27;2.58;;;10.60;99.90;;;;;;5061980;28;20033;-72
2024/01/26 01:20:16;;;;;;;12.57;2.78;;;10.60;99.90;;;;;;5045588;28;20193;-73
2024/01/26 01:22:42;;;;;;;18.92;3.53;;;10.60;99.90;;;;;;5062813;28;20509;-74
2024/01/26 01:25:09;;;;;;;15.57;1.88;;;10.60;99.90;;;;;;5048848;28;20035;-75
2024/01/26 01:27:36;;;;;;;4.70;1.70;;;10.60;99.90;;;;;;5059289;28;20043;-74
2024/01/26 01:30:05;;;;;;;17.85;2.55;;;10.70;99.90;;;;;;5044520;28;20036;-75
2024/01/26 01:32:30;;;;;;;17.05;2.97;;;10.70;99.90;;;;;;5061704;28;20028;-75
2024/01/26 01:34:56;;;;;;;10.75;2.67;;;10.70;99.90;;;;;;5047978;28;20475;-75
2024/01/26 01:37:22;;;;;;;18.65;2.38;;;10.70;99.90;;;;;;5066728;28;20043;-75
2024/01/26 01:39:48;;;;;;;9.68;2.50;;;10.70;99.90;;;;;;5049624;28;20563;-76
2024/01/26 01:42:14;;;;;;;8.35;2.95;;;10.60;99.90;;;;;;5062871;28;20033;-75
2024/01/26 01:44:41;;;;;;;16.58;2.58;;;10.60;99.90;;;;;;5050692;28;20039;-77
2024/01/26 01:47:09;;;;;;;21.23;3.75;;;10.60;99.90;;;;;;5056328;28;20438;-75
2024/01/26 01:49:35;;;;;;;14.23;3.50;;;10.60;99.90;;;;;;5060515;28;20032;-75
2024/01/26 01:52:05;;;;;;;30.80;3.97;;;10.60;99.90;;;;;;5052587;28;20040;-74
2024/01/26 01:54:31;;;;;;;18.17;2.47;;;10.60;99.90;;;;;;5060066;28;20075;-74
2024/01/26 01:56:57;;;;;;;7.85;2.83;;;10.60;99.90;;;;;;5049968;28;20028;-74
2024/01/26 01:59:23;;;;;;;15.35;3.17;;;10.70;99.90;;;;;;5060068;28;20683;-75
2024/01/26 02:01:50;;;;;;;19.98;3.80;;;10.60;99.90;;;;;;5045271;28;20065;-75
2024/01/26 02:04:15;;;;;;;24.35;2.90;;;10.70;99.90;;;;;;5061992;28;20063;-74
2024/01/26 02:06:41;;;;;;;19.45;3.13;;;10.70;99.90;;;;;;5044595;28;21199;-75
2024/01/26 02:09:07;;;;;;;14.90;3.25;;;10.70;99.90;;;;;;5066151;28;20064;-75
2024/01/26 02:11:32;;;;;;;17.60;4.15;;;10.70;99.90;;;;;;5051243;28;20067;-77
2024/01/26 02:13:59;;;;;;;6.03;1.83;;;10.70;99.90;;;;;;5058214;28;20523;-76
2024/01/26 02:16:25;;;;;;;11.55;3.00;;;10.80;99.90;;;;;;5050995;28;20028;-75
2024/01/26 02:18:50;;;;;;;13.45;2.10;;;10.80;99.90;;;;;;5062991;28;20465;-74
2024/01/26 02:21:16;;;;;;;10.27;3.03;;;10.80;99.90;;;;;;5044803;28;20395;-73
2024/01/26 02:23:43;;;;;;;11.00;3.28;;;10.80;99.90;;;;;;5062716;28;20032;-73
2024/01/26 02:26:09;;;;;;;11.52;2.85;;;10.80;99.90;;;;;;5042051;28;20156;-74
2024/01/26 02:28:35;;;;;;;6.90;1.95;;;10.80;99.90;;;;;;5058796;28;20685;-74
2024/01/26 02:31:02;;;;;;;5.82;1.90;;;10.80;99.90;;;;;;5053370;28;20062;-74
2024/01/26 02:33:27;;;;;;;14.52;2.60;;;10.80;99.90;;;;;;5051688;28;20722;-75
2024/01/26 02:35:53;;;;;;;5.03;2.28;;;10.80;99.90;;;;;;5059144;28;20024;-74
2024/01/26 02:38:19;;;;;;;17.30;3.08;;;10.90;99.90;;;;;;5051879;28;20036;-74
2024/01/26 02:40:45;;;;;;;9.52;2.00;;;10.90;99.90;;;;;;5058876;28;21008;-74
2024/01/26 02:43:11;;;;;;;13.90;2.38;;;10.90;99.90;;;;;;5051701;28;20119;-74
2024/01/26 02:45:36;;;;;;;2.80;1.70;;;10.80;99.90;;;;;;5062761;28;20069;-73
2024/01/26 02:48:02;;;;;;;10.10;3.22;;;10.80;99.90;;;;;;5043061;28;20083;-73
2024/01/26 02:50:28;;;;;;;7.97;3.30;;;10.80;99.90;;;;;;5059963;28;20032;-73
2024/01/26 02:52:54;;;;;;;7.15;1.90;;;10.80;99.90;;;;;;5046568;28;20075;-74
2024/01/26 02:55:20;;;;;;;11.18;1.83;;;10.80;99.90;;;;;;5057490;28;21110;-74
2024/01/26 02:57:45;;;;;;;13.05;1.45;;;10.80;99.90;;;;;;5050095;28;20032;-73
2024/01/26 03:00:11;;;;;;;11.05;2.00;;;10.80;99.90;;;;;;5059782;28;20403;-74
2024/01/26 03:02:37;;;;;;;10.85;2.45;;;10.80;99.90;;;;;;5048692;28;20035;-73
2024/01/26 03:05:03;;;;;;;16.50;1.27;;;10.70;99.90;;;;;;5057797;28;20460;-74
2024/01/26 03:07:29;;;;;;;12.25;2.15;;;10.70;99.90;;;;;;5038369;28;20594;-73
2024/01/26 03:09:55;;;;;;;13.13;2.35;;;10.70;99.90;;;;;;5057480;28;20039;-74
2024/01/26 03:12:20;;;;;;;15.85;3.05;;;10.70;99.90;;;;;;5060581;28;20055;-74
2024/01/26 03:14:46;;;;;;;5.57;1.17;;;10.70;99.90;;;;;;5054831;28;20040;-73
2024/01/26 03:17:11;;;;;;;8.15;1.98;;;10.70;99.90;;;;;;5065497;28;20495;-74
2024/01/26 03:19:37;;;;;;;11.82;2.25;;;10.70;99.90;;;;;;5039390;28;20123;-73
2024/01/26 03:22:03;;;;;;;20.08;1.95;;;10.70;99.90;;;;;;5047485;28;20119;-73
2024/01/26 03:24:29;;;;;;;17.90;3.08;;;10.70;99.90;;;;;;5041027;28;20063;-74
2024/01/26 03:26:54;;;;;;;9.07;1.42;;;10.80;99.90;;;;;;5056822;28;20039;-73
2024/01/26 03:29:21;;;;;;;7.22;2.47;;;10.80;99.90;;;;;;5046019;28;20093;-73
2024/01/26 03:31:47;;;;;;;10.77;1.75;;;10.70;99.90;;;;;;5059370;28;20187;-73
2024/01/26 03:34:12;;;;;;;18.33;2.38;;;10.70;99.90;;;;;;5044939;28;20291;-72
2024/01/26 03:36:38;;;;;;;31.85;2.42;;;10.70;99.90;;;;;;5056941;28;20029;-72
2024/01/26 03:39:03;;;;;;;3.67;1.30;;;10.70;99.90;;;;;;5050339;28;20100;-73
2024/01/26 03:41:29;;;;;;;20.10;2.38;;;10.70;99.90;;;;;;5054282;28;20730;-74
2024/01/26 03:43:55;;;;;;;8.02;1.92;;;10.70;99.90;;;;;;5052418;28;20088;-73
2024/01/26 03:46:21;;;;;;;4.18;1.90;;;10.70;99.90;;;;;;5066731;28;20407;-73
2024/01/26 03:48:47;;;;;;;4.70;1.50;;;10.70;99.90;;;;;;5048885;28;20068;-74
2024/01/26 03:51:13;;;;;;;7.57;1.58;;;10.70;99.90;;;;;;5064615;28;20651;-74
2024/01/26 03:53:38;;;;;;;6.05;1.00;;;10.60;99.90;;;;;;5060092;28;20036;-73
2024/01/26 03:56:04;;;;;;;4.68;2.03;;;10.60;99.90;;;;;;5049100;28;20327;-73
2024/01/26 03:58:30;;;;;;;13.45;1.77;;;10.70;99.90;;;;;;5065906;28;20560;-72
2024/01/26 04:00:56;;;;;;;14.10;2.25;;;10.70;99.90;;;;;;5043462;28;20408;-74
2024/01/26 04:03:21;;;;;;;17.60;1.70;;;10.70;99.90;;;;;;5064472;28;20036;-74
2024/01/26 04:05:47;;;;;;;12.10;1.67;;;10.70;99.90;;;;;;5050354;28;20035;-73
2024/01/26 04:08:13;;;;;;;5.50;0.88;;;10.60;99.90;;;;;;5062118;28;20166;-73
2024/01/26 04:10:39;;;;;;;18.70;2.35;;;10.60;99.90;;;;;;5049779;28;20074;-74
2024/01/26 04:13:05;;;;;;;5.60;1.65;;;10.70;99.90;;;;;;5061761;28;20469;-73
2024/01/26 04:15:31;;;;;;;12.10;2.40;;;10.70;99.90;;;;;;5052126;28;20349;-72
2024/01/26 04:17:57;;;;;;;19.13;3.20;;;10.70;99.90;;;;;;5071022;28;20041;-72
2024/01/26 04:20:23;;;;;;;16.67;1.85;;;10.70;99.90;;;;;;5052416;28;20043;-72
2024/01/26 04:22:49;;;;;;;27.98;3.13;;;10.70;99.90;;;;;;5060847;28;20036;-73
2024/01/26 04:25:14;;;;;;;9.80;2.17;;;10.70;99.90;;;;;;5048127;28;20430;-73
2024/01/26 04:27:40;;;;;;;22.45;2.17;;;10.70;99.90;;;;;;5060296;28;20040;-73
2024/01/26 04:30:06;;;;;;;8.35;1.73;;;10.70;99.90;;;;;;5052426;28;20327;-73
2024/01/26 04:32:32;;;;;;;3.80;1.65;;;10.70;99.90;;;;;;5068212;28;20045;-73
2024/01/26 04:34:57;;;;;;;8.32;2.28;;;10.70;99.90;;;;;;5059762;28;20024;-73
2024/01/26 04:37:23;;;;;;;6.68;2.45;;;10.70;99.90;;;;;;5050112;28;20553;-73
2024/01/26 04:39:50;;;;;;;24.40;2.50;;;10.70;99.90;;;;;;5068603;28;20042;-73
2024/01/26 04:42:16;;;;;;;7.97;1.92;;;10.60;99.90;;;;;;5045219;28;20036;-73
2024/01/26 04:44:42;;;;;;;18.98;2.20;;;10.60;99.90;;;;;;5065821;28;20037;-72
2024/01/26 04:47:08;;;;;;;13.77;3.38;;;10.60;99.90;;;;;;5050306;28;21592;-74
2024/01/26 04:49:33;;;;;;;19.85;1.88;;;10.70;99.90;;;;;;5066796;28;20062;-73
2024/01/26 04:52:01;;;;;;;4.68;1.50;;;10.60;99.90;;;;;;5051211;28;20102;-72
2024/01/26 04:54:27;;;;;;;17.13;3.28;;;10.60;99.90;;;;;;5056477;28;20044;-73
2024/01/26 04:56:52;;;;;;;10.95;1.92;;;10.60;99.90;;;;;;5053534;28;20024;-73
2024/01/26 04:59:18;;;;;;;16.17;2.00;;;10.60;99.90;;;;;;5064796;28;20056;-74
2024/01/26 05:01:44;;;;;;;5.93;1.63;;;10.60;99.90;;;;;;5046439;28;20036;-73
2024/01/26 05:04:10;;;;;;;8.77;2.33;;;10.60;99.90;;;;;;5047337;28;21520;-73
2024/01/26 05:06:35;;;;;;;10.43;2.67;;;10.70;99.90;;;;;;5047712;28;20028;-73
2024/01/26 05:09:01;;;;;;;10.15;2.28;;;10.70;99.90;;;;;;5059738;28;20036;-73
2024/01/26 05:11:26;;;;;;;22.83;2.03;;;10.80;99.90;;;;;;5045635;28;20266;-73
2024/01/26 05:13:52;;;;;;;17.20;2.33;;;10.80;99.90;;;;;;5058874;28;20033;-73
2024/01/26 05:16:18;;;;;;;5.18;1.38;;;10.50;99.90;;;;;;5061412;28;20913;-73
2024/01/26 05:18:43;;;;;;;9.15;2.47;;;10.80;99.90;;;;;;5050112;28;20032;-73
2024/01/26 05:21:09;;;;;;;12.35;2.58;;;10.80;99.90;;;;;;5068553;28;20032;-73
2024/01/26 05:23:35;;;;;;;23.48;2.55;;;10.80;99.90;;;;;;5050306;28;20111;-72
2024/01/26 05:26:01;;;;;;;18.10;3.58;;;10.80;99.90;;;;;;5060930;28;20097;-73
2024/01/26 05:28:26;;;;;;;18.55;3.22;;;10.80;99.90;;;;;;5042292;28;20033;-72
2024/01/26 05:30:52;;;;;;;17.45;2.22;;;10.80;99.90;;;;;;5061578;28;20036;-73
2024/01/26 05:33:18;;;;;;;16.92;2.25;;;10.80;99.90;;;;;;5050302;28;20032;-73
2024/01/26 05:35:45;;;;;;;19.38;1.98;;;10.80;99.90;;;;;;5062377;28;20089;-73
2024/01/26 05:38:11;;;;;;;11.10;2.33;;;10.90;99.90;;;;;;5050728;28;20031;-73
2024/01/26 05:40:36;;;;;;;8.52;1.92;;;10.90;99.90;;;;;;5057902;28;21687;-72
2024/01/26 05:43:02;;;;;;;20.35;1.73;;;11.00;99.90;;;;;;5048541;28;20032;-72
2024/01/26 05:45:28;;;;;;;15.90;1.65;;;11.10;99.90;;;;;;5060751;28;20966;-73
2024/01/26 05:47:54;;;;;;;3.13;1.45;;;11.00;99.90;;;;;;5045151;28;20494;-72
2024/01/26 05:50:21;;;;;;;0.80;0.20;;;11.00;99.90;;;;;;5062984;28;20040;-73
2024/01/26 05:52:47;;;;;;;1.38;0.20;;;10.70;99.90;;;;;;5054959;28;20388;-72
2024/01/26 05:55:14;;;;;;;2.72;0.28;;;10.50;99.90;;;;;;5059631;28;20032;-73
2024/01/26 05:57:40;;;;;;;0.32;0.32;;;10.40;99.90;;;;;;5061047;28;20039;-74
2024/01/26 06:00:07;;;;;;;3.40;0.57;;;10.50;99.90;;;;;;5051219;28;20032;-73
2024/01/26 06:02:32;;;;;;;0.28;0.15;;;10.50;99.90;;;;;;5060576;28;20740;-72
2024/01/26 06:04:58;;;;;;;0.98;0.25;;;10.50;99.90;;;;;;5051544;28;20036;-73
2024/01/26 06:07:23;;;;;;;2.15;1.52;;;10.50;99.90;;;;;;5064799;28;20070;-72
2024/01/26 06:09:49;;;;;;;0.77;0.30;;;10.50;99.90;;;;;;5048127;28;20144;-73
2024/01/26 06:12:15;;;;;;;3.72;0.85;;;10.50;99.90;;;;;;5060693;28;20169;-73
2024/01/26 06:14:41;;;;;;;2.20;0.30;;;10.40;99.90;;;;;;5042912;28;20402;-73
2024/01/26 06:17:06;;;;;;;4.38;0.43;;;10.40;99.90;;;;;;5061622;28;20097;-73
2024/01/26 06:19:32;;;;;;;3.63;0.60;;;10.30;99.90;;;;;;5036840;28;20066;-72
2024/01/26 06:21:58;;;;;;;0.93;0.20;;;10.30;99.90;;;;;;5055821;28;20584;-72
2024/01/26 06:24:23;;;;;;;1.42;0.25;;;10.30;99.90;;;;;;5046100;28;20111;-74
2024/01/26 06:26:49;;;;;;;3.80;0.55;;;10.30;99.90;;;;;;5059943;28;20488;-73
2024/01/26 06:29:15;;;;;;;0.20;0.13;;;10.20;99.90;;;;;;5034261;28;20652;-73
2024/01/26 06:31:40;;;;;;;1.88;0.47;;;10.20;99.90;;;;;;5062091;28;20033;-72
2024/01/26 06:34:06;;;;;;;1.00;0.47;;;10.20;99.90;;;;;;5048171;28;20462;-73
2024/01/26 06:36:32;;;;;;;0.90;0.28;;;10.20;99.90;;;;;;5061413;28;20341;-72
2024/01/26 06:38:57;;;;;;;1.25;0.30;;;10.20;99.90;;;;;;5069525;28;20471;-72
2024/01/26 06:41:23;;;;;;;7.28;0.65;;;10.10;99.90;;;;;;5047820;28;20037;-73
2024/01/26 06:43:51;;;;;;;1.85;0.20;;;10.10;99.90;;;;;;5060698;28;20035;-72
2024/01/26 06:46:21;;;;;;;7.03;0.90;;;10.00;99.90;;;;;;5041924;28;20135;-73
2024/01/26 06:48:47;;;;;;;1.05;0.50;;;9.90;99.90;;;;;;5055160;28;20033;-73
2024/01/26 06:51:13;;;;;;;3.53;0.63;;;9.80;99.90;;;;;;5051507;28;20640;-73
2024/01/26 06:53:38;;;;;;;2.80;0.68;;;9.60;99.90;;;;;;5057890;28;20055;-72
2024/01/26 06:56:06;;;;;;;2.67;0.35;;;9.50;99.90;;;;;;5042542;28;20111;-72
2024/01/26 06:58:31;;;;;;;0.88;0.60;;;9.40;99.90;;;;;;5060034;28;20051;-72
2024/01/26 07:00:58;;;;;;;2.47;0.40;;;9.30;99.90;;;;;;5049744;28;20558;-72
2024/01/26 07:03:24;;;;;;;1.20;0.43;;;9.10;99.90;;;;;;5051058;28;20149;-72
2024/01/26 07:05:50;;;;;;;8.07;0.50;;;9.00;99.90;;;;;;5052788;28;20088;-71
2024/01/26 07:08:16;;;;;;;0.47;0.30;;;8.90;99.90;;;;;;5060392;28;20032;-73
2024/01/26 07:10:42;;;;;;;7.75;0.50;;;8.90;99.90;;;;;;5049343;28;20039;-73
2024/01/26 07:13:07;;;;;;;0.35;0.25;;;8.70;99.90;;;;;;5050545;28;20492;-74
2024/01/26 07:15:33;;;;;;;0.70;0.60;;;8.60;99.90;;;;;;5051231;28;20604;-72
2024/01/26 07:17:59;;;;;;;8.00;1.38;;;8.60;99.90;;;;;;5054477;28;20756;-72
2024/01/26 07:20:24;;;;;;;1.02;0.55;;;8.50;99.90;;;;;;5060396;28;20028;-73
2024/01/26 07:22:50;;;;;;;5.05;0.82;;;8.40;99.90;;;;;;5043560;28;20043;-72
2024/01/26 07:25:19;;;;;;;4.05;0.55;;;8.30;99.90;;;;;;5062263;28;20495;-73
2024/01/26 07:27:46;;;;;;;0.30;0.30;;;8.30;99.90;;;;;;5042411;28;20040;-72
2024/01/26 07:30:13;;;;;;;5.00;0.57;;;8.30;99.90;;;;;;5061324;28;20051;-72
2024/01/26 07:32:39;;;;;;;0.52;0.30;;;8.20;99.90;;;;;;5047415;28;20037;-72
2024/01/26 07:35:06;;;;;;;2.17;0.80;;;8.10;99.90;;;;;;5053199;28;20039;-72
2024/01/26 07:37:32;;;;;;;4.63;0.30;;;8.10;99.90;;;;;;5045417;28;20293;-75
2024/01/26 07:40:00;;;;;;;0.30;0.30;;;8.00;99.90;;;;;;5061462;28;20041;-72
2024/01/26 07:42:26;;;;;;;0.47;0.32;;;7.90;99.90;;;;;;5039556;28;20041;-73
2024/01/26 07:44:52;;;;;;;4.78;0.13;;;7.90;99.90;;;;;;5059674;28;20502;-73
2024/01/26 07:47:17;;;;;;;1.20;0.32;;;7.80;99.90;;;;;;5035239;28;20369;-73
2024/01/26 07:49:43;;;;;;;8.57;0.30;;;7.80;99.90;;;;;;5051406;28;20036;-73
2024/01/26 07:52:08;;;;;;;3.38;0.22;;;7.70;99.90;;;;;;5036799;28;20143;-73
2024/01/26 07:54:34;;;;;;;4.25;0.30;;;7.70;99.90;;;;;;5051889;28;20056;-72
2024/01/26 07:57:00;;;;;;;1.23;0.30;;;7.60;99.90;;;;;;5041447;28;20632;-73
2024/01/26 07:59:26;;;;;;;2.17;0.38;;;7.50;99.90;;;;;;5054659;28;20157;-73
2024/01/26 08:01:52;;;;;;;3.38;0.30;;;7.50;99.90;;;;;;5053741;28;20081;-73
2024/01/26 08:04:17;;;;;;;0.80;0.20;;;7.50;99.90;;;;;;5038825;28;20032;-72
2024/01/26 08:06:43;;;;;;;1.02;0.32;;;7.60;99.90;;;;;;5053485;28;20041;-76
2024/01/26 08:09:10;;;;;;;0.20;0.20;;;7.60;99.90;;;;;;5039105;28;20061;-75
2024/01/26 08:11:36;;;;;;;0.47;0.43;;;7.60;99.90;;;;;;5059832;28;20811;-73
2024/01/26 08:14:02;;;;;;;0.43;0.22;;;7.70;99.90;;;;;;5040114;28;20039;-72
2024/01/26 08:16:28;;;;;;;0.22;0.22;;;7.60;99.90;;;;;;5042502;28;20039;-75
2024/01/26 08:18:55;;;;;;;1.25;0.55;;;7.60;99.90;;;;;;5030577;28;20032;-71
2024/01/26 08:21:21;;;;;;;2.63;0.47;;;7.50;99.90;;;;;;5056968;28;20028;-69
2024/01/26 08:23:47;;;;;;;3.85;0.40;;;7.50;99.90;;;;;;5035944;28;20491;-72
2024/01/26 08:26:14;;;;;;;2.45;0.40;;;7.50;99.90;;;;;;5055352;28;20028;-72
2024/01/26 08:28:39;;;;;;;0.20;0.20;;;7.40;99.90;;;;;;5036381;28;20032;-72
2024/01/26 08:31:05;;;;;;;1.02;0.57;;;7.40;99.90;;;;;;5052785;28;20400;-72
2024/01/26 08:33:31;;;;;;;5.70;0.40;;;7.40;99.90;;;;;;5035951;28;20189;-71
2024/01/26 08:35:57;;;;;;;1.23;0.60;;;7.30;99.90;;;;;;5036813;28;20032;-72
2024/01/26 08:38:23;;;;;;;0.50;0.35;;;7.30;99.90;;;;;;5034962;28;20408;-72
2024/01/26 08:40:49;;;;;;;0.80;0.30;;;7.40;99.90;;;;;;5053686;28;20972;-73
2024/01/26 08:43:15;;;;;;;3.92;0.63;;;7.50;99.90;;;;;;5046370;28;20040;-73
2024/01/26 08:45:41;;;;;;;0.70;0.20;;;7.50;99.90;;;;;;5043769;28;20161;-73
2024/01/26 08:48:06;;;;;;;4.25;0.38;;;7.50;99.90;;;;;;5044111;28;20530;-73
2024/01/26 08:50:32;;;;;;;2.75;0.30;;;7.50;99.90;;;;;;5037545;28;20044;-71
2024/01/26 08:52:58;;;;;;;0.63;0.45;;;7.50;99.90;;;;;;5052494;28;20055;-72
2024/01/26 08:55:23;;;;;;;0.47;0.03;;;7.50;99.90;;;;;;5042412;28;20032;-72
2024/01/26 08:57:50;;;;;;;5.25;0.40;;;7.50;99.90;;;;;;5047246;28;20039;-74
2024/01/26 09:00:16;;;;;;;2.65;0.80;;;7.50;99.90;;;;;;5048085;28;20111;-71
2024/01/26 09:02:42;;;;;;;0.50;0.28;;;7.50;99.90;;;;;;5050047;28;20036;-73
2024/01/26 09:05:09;;;;;;;1.00;0.20;;;7.50;99.90;;;;;;5040722;28;20093;-73
2024/01/26 09:07:35;;;;;;;0.75;0.25;;;7.50;99.90;;;;;;5055023;28;20036;-72
2024/01/26 09:10:01;;;;;;;1.45;0.20;;;7.50;99.90;;;;;;5044074;28;20545;-74
2024/01/26 09:12:26;;;;;;;1.05;0.40;;;7.50;99.90;;;;;;5061046;28;20029;-74
2024/01/26 09:14:52;;;;;;;0.40;0.40;;;7.50;99.90;;;;;;5042489;28;20033;-75
2024/01/26 09:17:18;;;;;;;4.40;1.15;;;7.60;99.90;;;;;;5055842;28;20036;-72
2024/01/26 09:19:43;;;;;;;0.52;0.10;;;7.60;99.90;;;;;;5043889;28;20127;-73
2024/01/26 09:22:09;;;;;;;1.08;0.55;;;7.70;99.90;;;;;;5053524;28;20507;-72
2024/01/26 09:24:35;;;;;;;0.95;0.32;;;7.80;99.90;;;;;;5057124;28;20083;-76
2024/01/26 09:27:01;;;;;;;0.50;0.38;;;7.90;99.90;;;;;;5046519;28;20036;-73
2024/01/26 09:29:27;;;;;;;3.30;0.32;;;8.00;99.90;;;;;;5043020;28;21220;-73
2024/01/26 09:31:54;;;;;;;3.33;0.30;;;8.00;99.90;;;;;;5040641;28;20051;-73
2024/01/26 09:34:20;;;;;;;0.68;0.30;;;8.00;99.60;;;;;;5056363;28;20712;-73
2024/01/26 09:36:46;;;;;;;4.28;0.90;;;8.10;99.20;;;;;;5046986;28;20044;-74
2024/01/26 09:39:12;;;;;;;7.72;0.30;;;8.20;99.20;;;;;;5049999;28;20028;-75
2024/01/26 09:41:38;;;;;;;1.27;0.25;;;8.20;99.10;;;;;;5046528;28;20039;-75
2024/01/26 09:44:04;;;;;;;5.57;0.75;;;8.20;98.20;;;;;;5057293;28;20036;-75
2024/01/26 09:46:30;;;;;;;5.50;0.40;;;8.30;98.60;;;;;;5038633;28;20448;-73
2024/01/26 09:48:57;;;;;;;0.90;0.57;;;8.30;98.70;;;;;;5043939;28;20119;-73
2024/01/26 09:51:25;;;;;;;2.20;0.35;;;8.40;97.80;;;;;;5038413;28;20124;-72
2024/01/26 09:53:57;;;;;;;6.88;0.85;;;8.50;97.80;;;;;;5053317;28;20091;-73
2024/01/26 09:56:23;;;;;;;3.75;0.25;;;8.60;97.50;;;;;;5031858;28;20455;-72
2024/01/26 09:58:48;;;;;;;0.43;0.30;;;8.60;96.90;;;;;;5052997;28;20032;-73
2024/01/26 10:01:21;;;;;;;1.30;0.45;;;8.70;96.70;;;;;;5035047;28;20679;-72
2024/01/26 10:03:47;;;;;;;1.13;0.32;;;8.70;96.70;;;;;;5041956;28;20127;-74
2024/01/26 10:06:14;;;;;;;2.83;0.38;;;8.80;96.60;;;;;;5036052;28;20044;-73
2024/01/26 10:08:41;;;;;;;1.00;0.30;;;8.80;95.70;;;;;;5060435;28;20036;-73
2024/01/26 10:11:08;;;;;;;3.30;0.68;;;8.90;96.30;;;;;;5058567;28;20047;-74
2024/01/26 10:13:34;;;;;;;0.35;0.17;;;8.90;95.50;;;;;;5052665;28;20487;-75
2024/01/26 10:16:08;;;;;;;8.60;0.52;;;9.00;95.20;;;;;;5050431;28;20028;-75
2024/01/26 10:18:43;;;;;;;9.80;0.40;;;9.00;95.40;;;;;;5026890;28;20560;-76
2024/01/26 10:21:10;;;;;;;1.45;0.38;;;9.10;94.20;;;;;;5052761;28;20109;-72
2024/01/26 10:23:35;;;;;;;3.13;0.47;;;9.10;94.50;;;;;;5032938;28;20821;-72
2024/01/26 10:26:01;;;;;;;4.22;0.85;;;9.10;94.10;;;;;;5059220;28;20040;-71
2024/01/26 10:28:27;;;;;;;3.05;0.60;;;9.10;94.70;;;;;;5037961;28;20059;-70
2024/01/26 10:30:53;;;;;;;0.32;0.25;;;9.10;94.20;;;;;;5053409;28;20040;-69
2024/01/26 10:33:22;;;;;;;2.33;0.40;;;9.10;95.10;;;;;;5042523;28;20103;-70
2024/01/26 10:35:50;;;;;;;0.20;0.20;;;9.10;94.80;;;;;;5048801;28;20593;-70
2024/01/26 10:38:16;;;;;;;2.13;0.50;;;9.20;94.20;;;;;;5033123;28;20518;-70
2024/01/26 10:40:46;;;;;;;3.72;0.55;;;9.20;94.20;;;;;;5054945;28;20031;-70
2024/01/26 10:43:12;;;;;;;1.45;0.30;;;9.30;94.40;;;;;;5031720;28;20056;-70
2024/01/26 10:45:38;;;;;;;0.65;0.20;;;9.40;94.00;;;;;;5055870;28;20678;-70
2024/01/26 10:48:07;;;;;;;2.92;0.93;;;9.30;93.90;;;;;;5020095;28;20057;-70
2024/01/26 10:50:34;;;;;;;0.57;0.20;;;9.30;93.60;;;;;;5025417;28;20442;-71
2024/01/26 10:53:01;;;;;;;8.10;0.95;;;9.30;93.00;;;;;;5013888;28;20278;-70
2024/01/26 10:55:28;;;;;;;10.15;0.73;;;9.20;92.80;;;;;;5020362;28;20556;-71
2024/01/26 10:57:54;;;;;;;1.35;0.20;;;9.40;93.20;;;;;;5014092;28;20116;-71
2024/01/26 11:00:20;;;;;;;2.45;0.80;;;9.30;93.10;;;;;;5027551;28;20086;-72
2024/01/26 11:02:46;;;;;;;4.93;0.20;;;9.40;92.80;;;;;;5001088;28;20056;-72
2024/01/26 11:05:12;;;;;;;2.72;0.40;;;9.40;93.10;;;;;;5014855;28;20039;-72
2024/01/26 11:07:39;;;;;;;1.25;0.30;;;9.50;93.40;;;;;;5035119;28;20576;-72
2024/01/26 11:10:10;;;;;;;1.25;0.32;;;9.40;93.40;;;;;;5012229;28;20376;-75
2024/01/26 11:12:38;;;;;;;6.82;0.73;;;9.50;93.40;;;;;;5024837;28;21554;-73
2024/01/26 11:15:05;;;;;;;0.10;0.10;;;9.50;93.20;;;;;;5019406;28;20053;-74
2024/01/26 11:17:56;;;;;;;3.33;0.43;;;9.60;93.50;;;;;;5028541;28;20063;-72
2024/01/26 11:20:26;;;;;;;2.53;0.38;;;9.60;92.40;;;;;;5024576;28;20060;-74
2024/01/26 11:23:13;;;;;;;1.95;0.40;;;9.70;92.80;;;;;;5026560;28;20205;-75
2024/01/26 11:25:57;;;;;;;4.88;0.52;;;9.60;91.40;;;;;;5021090;28;20033;-73
2024/01/26 11:28:28;;;;;;;4.05;0.30;;;9.70;92.20;;;;;;5031920;28;20119;-74
2024/01/26 11:30:56;;;;;;;2.40;0.60;;;9.70;92.70;;;;;;5011189;28;20688;-77
2024/01/26 11:33:22;;;;;;;10.50;0.97;;;9.70;91.50;;;;;;5030976;28;20041;-73
2024/01/26 11:35:48;;;;;;;2.85;0.47;;;9.80;91.60;;;;;;5024673;28;20330;-74
2024/01/26 11:38:15;;;;;;;4.40;0.70;;;9.70;92.50;;;;;;5030046;28;20116;-75
2024/01/26 11:40:40;;;;;;;2.25;0.57;;;9.70;93.30;;;;;;5010076;28;20036;-72
2024/01/26 11:43:07;;;;;;;0.10;0.10;;;9.70;92.00;;;;;;5022888;28;20040;-73
2024/01/26 11:45:48;;;;;;;2.60;0.30;;;9.80;92.20;;;;;;5018840;28;20071;-73
2024/01/26 11:48:14;;;;;;;0.40;0.22;;;9.90;92.70;;;;;;5052538;28;20588;-72
2024/01/26 11:50:43;;;;;;;1.60;0.50;;;10.10;91.70;;;;;;5033814;28;20090;-73
2024/01/26 11:53:10;;;;;;;6.25;0.60;;;10.10;91.70;;;;;;5051425;28;20176;-73
2024/01/26 11:55:38;;;;;;;0.85;0.50;;;10.20;99.90;;;;;;5038028;28;20041;-72
2024/01/26 11:58:04;;;;;;;1.40;0.52;;;10.10;88.10;;;;;;5055788;28;20135;-71
2024/01/26 12:00:30;;;;;;;2.92;0.50;;;10.10;88.80;;;;;;5044570;28;20048;-73
2024/01/26 12:02:56;;;;;;;2.25;0.60;;;10.20;88.20;;;;;;5047739;28;20040;-72
2024/01/26 12:05:22;;;;;;;2.38;0.40;;;10.20;88.60;;;;;;5041948;28;20036;-73
2024/01/26 12:07:48;;;;;;;5.80;0.80;;;10.20;89.70;;;;;;5053084;28;20654;-72
2024/01/26 12:10:14;;;;;;;4.97;0.90;;;10.20;86.40;;;;;;5039272;28;20039;-76
2024/01/26 12:12:42;;;;;;;0.82;0.25;;;10.00;92.80;;;;;;5056201;28;20461;-74
2024/01/26 12:15:09;;;;;;;0.70;0.32;;;10.20;91.00;;;;;;5073433;28;20672;-73
2024/01/26 12:17:35;;;;;;;3.50;0.55;;;10.10;90.80;;;;;;5043663;28;20024;-72
2024/01/26 12:20:05;;;;;;;1.65;0.30;;;10.10;91.90;;;;;;5054775;28;20040;-74
2024/01/26 12:22:37;;;;;;;2.88;0.50;;;10.10;91.30;;;;;;5042222;28;20055;-74
2024/01/26 12:25:06;;;;;;;0.75;0.63;;;10.10;90.70;;;;;;5051575;28;20041;-72
2024/01/26 12:27:34;;;;;;;2.42;0.70;;;10.10;83.70;;;;;;5033404;28;20060;-73
2024/01/26 12:30:00;;;;;;;3.50;0.75;;;10.10;86.20;;;;;;5047290;28;20032;-72
2024/01/26 12:32:25;;;;;;;2.80;0.43;;;10.10;85.10;;;;;;5041314;28;20070;-73
2024/01/26 12:34:51;;;;;;;2.25;0.40;;;10.20;83.10;;;;;;5051626;28;20052;-71
2024/01/26 12:37:17;;;;;;;4.03;0.60;;;10.30;82.70;;;;;;5035812;28;20561;-72
2024/01/26 12:39:42;;;;;;;3.47;0.75;;;10.20;82.30;;;;;;5049065;28;21357;-74
2024/01/26 12:42:08;;;;;;;1.95;0.43;;;10.20;81.20;;;;;;5042666;28;21073;-73